LXP202 SCIE-SCEL
Flight info
| Callsign | LXP202 |
|---|---|
| Flight time | 0h 48m |
| Altitude | 30000 |
| Route | LODOS4N LODOS UQ808 EROLO EROLO8A |
| Aircraft | A321/M-SDE3FGHIRWY/LB1 |
Departure
| Time | 2026-04-23 16:44 |
|---|---|
| Airport | Carriel Sur International Airport (SCIE) |
Arrival
| Time | 2026-04-23 17:32 |
|---|---|
| Airport | Comodoro Arturo Merino Benítez International Airport (SCEL) |
| Time | Latitude | Longitude | Altitude | Speed | Heading |
|---|---|---|---|---|---|
| 2026-04-23 15:40 | -36.77603 | -73.06033 | 60 ft | 0 kts | 169° |
| 2026-04-23 16:32 | -36.77582 | -73.06039 | 52 ft | 3 kts | 171° |
| 2026-04-23 16:32 | -36.77562 | -73.06042 | 56 ft | 3 kts | 182° |
| 2026-04-23 16:33 | -36.77543 | -73.06036 | 55 ft | 3 kts | 232° |
| 2026-04-23 16:33 | -36.77538 | -73.06014 | 53 ft | 3 kts | 275° |
| 2026-04-23 16:33 | -36.77539 | -73.05997 | 52 ft | 0 kts | 275° |
| 2026-04-23 16:36 | -36.77539 | -73.05999 | 52 ft | 1 kts | 275° |
| 2026-04-23 16:36 | -36.77538 | -73.06021 | 54 ft | 4 kts | 275° |
| 2026-04-23 16:36 | -36.77533 | -73.06071 | 60 ft | 7 kts | 279° |
| 2026-04-23 16:36 | -36.77515 | -73.06134 | 59 ft | 8 kts | 292° |
| 2026-04-23 16:37 | -36.77471 | -73.06183 | 59 ft | 9 kts | 351° |
| 2026-04-23 16:37 | -36.77406 | -73.06158 | 59 ft | 11 kts | 25° |
| 2026-04-23 16:37 | -36.77337 | -73.06118 | 55 ft | 11 kts | 25° |
| 2026-04-23 16:37 | -36.77269 | -73.06078 | 55 ft | 11 kts | 25° |
| 2026-04-23 16:38 | -36.77203 | -73.06040 | 52 ft | 10 kts | 25° |
| 2026-04-23 16:38 | -36.77137 | -73.06002 | 57 ft | 10 kts | 25° |
| 2026-04-23 16:38 | -36.77094 | -73.05976 | 56 ft | 10 kts | 25° |
| 2026-04-23 16:38 | -36.77030 | -73.05939 | 56 ft | 10 kts | 24° |
| 2026-04-23 16:39 | -36.76965 | -73.05902 | 58 ft | 10 kts | 25° |
| 2026-04-23 16:39 | -36.76902 | -73.05864 | 56 ft | 10 kts | 25° |
| 2026-04-23 16:39 | -36.76813 | -73.05815 | 53 ft | 11 kts | 24° |
| 2026-04-23 16:39 | -36.76746 | -73.05774 | 58 ft | 10 kts | 26° |
| 2026-04-23 16:40 | -36.76705 | -73.05750 | 53 ft | 9 kts | 25° |
| 2026-04-23 16:40 | -36.76650 | -73.05718 | 58 ft | 8 kts | 25° |
| 2026-04-23 16:40 | -36.76601 | -73.05690 | 52 ft | 7 kts | 25° |
| 2026-04-23 16:40 | -36.76558 | -73.05665 | 55 ft | 6 kts | 25° |
| 2026-04-23 16:41 | -36.76520 | -73.05643 | 52 ft | 6 kts | 25° |
| 2026-04-23 16:41 | -36.76486 | -73.05623 | 61 ft | 5 kts | 25° |
| 2026-04-23 16:41 | -36.76456 | -73.05606 | 56 ft | 4 kts | 25° |
| 2026-04-23 16:41 | -36.76422 | -73.05588 | 52 ft | 8 kts | 17° |
| 2026-04-23 16:42 | -36.76371 | -73.05600 | 58 ft | 7 kts | 326° |
| 2026-04-23 16:42 | -36.76346 | -73.05636 | 61 ft | 4 kts | 301° |
| 2026-04-23 16:42 | -36.76340 | -73.05651 | 56 ft | 1 kts | 297° |
| 2026-04-23 16:42 | -36.76326 | -73.05684 | 61 ft | 7 kts | 297° |
| 2026-04-23 16:43 | -36.76312 | -73.05717 | 59 ft | 5 kts | 297° |
| 2026-04-23 16:43 | -36.76319 | -73.05770 | 60 ft | 9 kts | 219° |
| 2026-04-23 16:43 | -36.76452 | -73.05852 | 65 ft | 48 kts | 205° |
| 2026-04-23 16:43 | -36.76970 | -73.06152 | 59 ft | 115 kts | 205° |
| 2026-04-23 16:44 | -36.77846 | -73.06658 | 184 ft | 152 kts | 204° |
| 2026-04-23 16:44 | -36.78796 | -73.07201 | 865 ft | 152 kts | 205° |
| 2026-04-23 16:44 | -36.79855 | -73.07668 | 1178 ft | 173 kts | 184° |
| 2026-04-23 16:44 | -36.81031 | -73.07106 | 1444 ft | 200 kts | 136° |
| 2026-04-23 16:45 | -36.81627 | -73.05435 | 1667 ft | 230 kts | 98° |
| 2026-04-23 16:45 | -36.81630 | -73.03323 | 2062 ft | 255 kts | 87° |
| 2026-04-23 16:45 | -36.81427 | -73.01095 | 2911 ft | 261 kts | 84° |
| 2026-04-23 16:45 | -36.81168 | -72.98827 | 3805 ft | 266 kts | 83° |
| 2026-04-23 16:46 | -36.80912 | -72.96523 | 4669 ft | 271 kts | 83° |
| 2026-04-23 16:46 | -36.80663 | -72.94183 | 5478 ft | 275 kts | 80° |
| 2026-04-23 16:46 | -36.79963 | -72.91947 | 6190 ft | 281 kts | 54° |
| 2026-04-23 16:46 | -36.78567 | -72.90229 | 6914 ft | 285 kts | 36° |
| 2026-04-23 16:47 | -36.76995 | -72.88704 | 7672 ft | 288 kts | 36° |
| 2026-04-23 16:47 | -36.75423 | -72.87179 | 8436 ft | 292 kts | 36° |
| 2026-04-23 16:47 | -36.73810 | -72.85608 | 9185 ft | 296 kts | 36° |
| 2026-04-23 16:47 | -36.72173 | -72.84012 | 9927 ft | 301 kts | 36° |
| 2026-04-23 16:48 | -36.70503 | -72.82384 | 10427 ft | 315 kts | 36° |
| 2026-04-23 16:48 | -36.68718 | -72.80647 | 10587 ft | 337 kts | 36° |
| 2026-04-23 16:48 | -36.66832 | -72.78814 | 11072 ft | 347 kts | 37° |
| 2026-04-23 16:48 | -36.64915 | -72.76942 | 11731 ft | 352 kts | 37° |
| 2026-04-23 16:49 | -36.62975 | -72.75047 | 12425 ft | 356 kts | 37° |
| 2026-04-23 16:49 | -36.61021 | -72.73136 | 13125 ft | 360 kts | 36° |
| 2026-04-23 16:49 | -36.59072 | -72.71231 | 13800 ft | 364 kts | 36° |
| 2026-04-23 16:49 | -36.57068 | -72.69273 | 14435 ft | 368 kts | 36° |
| 2026-04-23 16:50 | -36.55043 | -72.67297 | 15053 ft | 371 kts | 36° |
| 2026-04-23 16:50 | -36.52999 | -72.65309 | 15664 ft | 374 kts | 36° |
| 2026-04-23 16:50 | -36.50937 | -72.63308 | 16295 ft | 378 kts | 36° |
| 2026-04-23 16:50 | -36.48847 | -72.61285 | 16931 ft | 381 kts | 36° |
| 2026-04-23 16:51 | -36.46750 | -72.59254 | 17541 ft | 384 kts | 35° |
| 2026-04-23 16:51 | -36.44631 | -72.57201 | 18138 ft | 388 kts | 36° |
| 2026-04-23 16:51 | -36.42490 | -72.55131 | 18722 ft | 391 kts | 36° |
| 2026-04-23 16:51 | -36.40339 | -72.53048 | 19244 ft | 394 kts | 36° |
| 2026-04-23 16:52 | -36.38208 | -72.50985 | 19742 ft | 397 kts | 36° |
| 2026-04-23 16:52 | -36.36025 | -72.48876 | 20262 ft | 400 kts | 36° |
| 2026-04-23 16:52 | -36.33821 | -72.46748 | 20788 ft | 403 kts | 36° |
| 2026-04-23 16:52 | -36.31602 | -72.44605 | 21268 ft | 406 kts | 36° |
| 2026-04-23 16:53 | -36.29369 | -72.42446 | 21764 ft | 409 kts | 36° |
| 2026-04-23 16:53 | -36.27112 | -72.40265 | 22265 ft | 411 kts | 36° |
| 2026-04-23 16:53 | -36.24839 | -72.38074 | 22727 ft | 415 kts | 36° |
| 2026-04-23 16:53 | -36.22578 | -72.35900 | 23207 ft | 418 kts | 36° |
| 2026-04-23 16:54 | -36.20269 | -72.33682 | 23685 ft | 420 kts | 36° |
| 2026-04-23 16:54 | -36.17942 | -72.31448 | 24084 ft | 423 kts | 36° |
| 2026-04-23 16:54 | -36.15610 | -72.29211 | 24468 ft | 426 kts | 36° |
| 2026-04-23 16:54 | -36.13264 | -72.26960 | 24865 ft | 427 kts | 36° |
| 2026-04-23 16:55 | -36.10908 | -72.24700 | 25288 ft | 428 kts | 36° |
| 2026-04-23 16:55 | -36.08554 | -72.22458 | 25712 ft | 429 kts | 34° |
| 2026-04-23 16:55 | -36.06156 | -72.20239 | 26126 ft | 431 kts | 35° |
| 2026-04-23 16:55 | -36.03677 | -72.18150 | 26488 ft | 432 kts | 27° |
| 2026-04-23 16:56 | -36.01031 | -72.16499 | 26850 ft | 432 kts | 22° |
| 2026-04-23 16:56 | -35.98300 | -72.14917 | 27220 ft | 434 kts | 22° |
| 2026-04-23 16:56 | -35.95547 | -72.13350 | 27589 ft | 436 kts | 22° |
| 2026-04-23 16:56 | -35.92805 | -72.11804 | 27949 ft | 438 kts | 21° |
| 2026-04-23 16:57 | -35.90020 | -72.10243 | 28304 ft | 441 kts | 21° |
| 2026-04-23 16:57 | -35.87226 | -72.08676 | 28644 ft | 443 kts | 21° |
| 2026-04-23 16:57 | -35.84413 | -72.07096 | 29016 ft | 445 kts | 21° |
| 2026-04-23 16:57 | -35.81583 | -72.05502 | 29340 ft | 447 kts | 21° |
| 2026-04-23 16:58 | -35.78755 | -72.03903 | 29673 ft | 449 kts | 21° |
| 2026-04-23 16:58 | -35.75943 | -72.02311 | 29994 ft | 451 kts | 21° |
| 2026-04-23 16:58 | -35.73087 | -72.00697 | 30197 ft | 451 kts | 21° |
| 2026-04-23 16:58 | -35.70267 | -71.99105 | 30217 ft | 440 kts | 21° |
| 2026-04-23 16:59 | -35.64745 | -71.96002 | 30220 ft | 434 kts | 21° |
| 2026-04-23 16:59 | -35.59248 | -71.92926 | 30214 ft | 433 kts | 21° |
| 2026-04-23 17:00 | -35.53751 | -71.89854 | 30217 ft | 434 kts | 21° |
| 2026-04-23 17:00 | -35.48292 | -71.86798 | 30219 ft | 434 kts | 21° |
| 2026-04-23 17:01 | -35.42801 | -71.83731 | 30221 ft | 434 kts | 21° |
| 2026-04-23 17:01 | -35.37313 | -71.80664 | 30217 ft | 433 kts | 21° |
| 2026-04-23 17:02 | -35.31819 | -71.77598 | 30199 ft | 433 kts | 20° |
| 2026-04-23 17:02 | -35.26326 | -71.74547 | 30205 ft | 433 kts | 20° |
| 2026-04-23 17:03 | -35.20867 | -71.71529 | 30203 ft | 433 kts | 20° |
| 2026-04-23 17:03 | -35.15381 | -71.68489 | 30210 ft | 433 kts | 20° |
| 2026-04-23 17:04 | -35.09899 | -71.65441 | 30202 ft | 433 kts | 20° |
| 2026-04-23 17:04 | -35.04414 | -71.62403 | 30203 ft | 432 kts | 20° |
| 2026-04-23 17:05 | -34.98928 | -71.59382 | 30200 ft | 432 kts | 20° |
| 2026-04-23 17:05 | -34.93444 | -71.56357 | 30203 ft | 432 kts | 20° |
| 2026-04-23 17:06 | -34.88000 | -71.53358 | 30195 ft | 432 kts | 20° |
| 2026-04-23 17:06 | -34.82512 | -71.50338 | 30193 ft | 433 kts | 20° |
| 2026-04-23 17:07 | -34.77016 | -71.47320 | 30168 ft | 432 kts | 19° |
| 2026-04-23 17:07 | -34.71524 | -71.44315 | 30178 ft | 432 kts | 19° |
| 2026-04-23 17:08 | -34.66960 | -71.41821 | 30173 ft | 432 kts | 19° |
| 2026-04-23 17:08 | -34.60547 | -71.38445 | 30175 ft | 431 kts | 17° |
| 2026-04-23 17:09 | -34.54983 | -71.35750 | 30177 ft | 430 kts | 17° |
| 2026-04-23 17:09 | -34.49421 | -71.33081 | 30165 ft | 430 kts | 17° |
| 2026-04-23 17:10 | -34.43858 | -71.30360 | 30167 ft | 431 kts | 17° |
| 2026-04-23 17:10 | -34.38342 | -71.27644 | 30159 ft | 431 kts | 17° |
| 2026-04-23 17:11 | -34.32784 | -71.24919 | 30167 ft | 430 kts | 17° |
| 2026-04-23 17:11 | -34.27229 | -71.22191 | 30121 ft | 430 kts | 17° |
| 2026-04-23 17:12 | -34.24458 | -71.20829 | 29849 ft | 427 kts | 17° |
| 2026-04-23 17:12 | -34.21714 | -71.19482 | 29554 ft | 423 kts | 17° |
| 2026-04-23 17:12 | -34.19039 | -71.18172 | 29061 ft | 419 kts | 17° |
| 2026-04-23 17:12 | -34.16345 | -71.16853 | 28547 ft | 415 kts | 17° |
| 2026-04-23 17:13 | -34.13679 | -71.15553 | 28041 ft | 412 kts | 17° |
| 2026-04-23 17:13 | -34.11032 | -71.14266 | 27534 ft | 408 kts | 17° |
| 2026-04-23 17:13 | -34.08420 | -71.13000 | 27057 ft | 404 kts | 17° |
| 2026-04-23 17:13 | -34.05820 | -71.11742 | 26581 ft | 401 kts | 17° |
| 2026-04-23 17:14 | -34.03243 | -71.10494 | 26106 ft | 398 kts | 17° |
| 2026-04-23 17:14 | -34.00684 | -71.09255 | 25646 ft | 394 kts | 18° |
| 2026-04-23 17:14 | -33.98161 | -71.08030 | 25223 ft | 389 kts | 17° |
| 2026-04-23 17:14 | -33.95660 | -71.06811 | 24783 ft | 386 kts | 17° |
| 2026-04-23 17:15 | -33.93173 | -71.05600 | 24341 ft | 384 kts | 18° |
| 2026-04-23 17:15 | -33.90704 | -71.04402 | 23912 ft | 381 kts | 18° |
| 2026-04-23 17:15 | -33.88275 | -71.03228 | 23418 ft | 380 kts | 18° |
| 2026-04-23 17:15 | -33.85835 | -71.02051 | 22974 ft | 376 kts | 18° |
| 2026-04-23 17:16 | -33.83432 | -71.00891 | 22525 ft | 371 kts | 18° |
| 2026-04-23 17:16 | -33.81047 | -70.99734 | 22088 ft | 368 kts | 18° |
| 2026-04-23 17:16 | -33.78689 | -70.98590 | 21647 ft | 365 kts | 18° |
| 2026-04-23 17:16 | -33.76340 | -70.97453 | 21190 ft | 362 kts | 18° |
| 2026-04-23 17:17 | -33.74004 | -70.96324 | 20743 ft | 360 kts | 18° |
| 2026-04-23 17:17 | -33.71695 | -70.95210 | 20315 ft | 358 kts | 18° |
| 2026-04-23 17:17 | -33.70168 | -70.94473 | 20018 ft | 357 kts | 18° |
| 2026-04-23 17:17 | -33.67099 | -70.92994 | 19430 ft | 354 kts | 19° |
| 2026-04-23 17:18 | -33.62535 | -70.90797 | 18542 ft | 352 kts | 19° |
| 2026-04-23 17:18 | -33.60268 | -70.89707 | 18076 ft | 351 kts | 19° |
| 2026-04-23 17:18 | -33.58042 | -70.88635 | 17644 ft | 348 kts | 19° |
| 2026-04-23 17:19 | -33.55859 | -70.87393 | 17218 ft | 346 kts | 28° |
| 2026-04-23 17:19 | -33.53824 | -70.85893 | 16802 ft | 343 kts | 28° |
| 2026-04-23 17:19 | -33.51783 | -70.84406 | 16391 ft | 343 kts | 28° |
| 2026-04-23 17:19 | -33.49742 | -70.82930 | 15989 ft | 341 kts | 28° |
| 2026-04-23 17:20 | -33.47715 | -70.81461 | 15587 ft | 339 kts | 29° |
| 2026-04-23 17:20 | -33.43672 | -70.78464 | 13459 ft | 343 kts | 30° |
| 2026-04-23 17:21 | -33.39661 | -70.75486 | 11421 ft | 334 kts | 30° |
| 2026-04-23 17:21 | -33.37771 | -70.74098 | 11102 ft | 309 kts | 29° |
| 2026-04-23 17:21 | -33.34284 | -70.71539 | 10166 ft | 280 kts | 29° |
| 2026-04-23 17:22 | -33.32659 | -70.70363 | 9705 ft | 267 kts | 25° |
| 2026-04-23 17:22 | -33.29182 | -70.69304 | 8406 ft | 255 kts | 358° |
| 2026-04-23 17:23 | -33.25681 | -70.69704 | 7562 ft | 252 kts | 353° |
| 2026-04-23 17:23 | -33.23940 | -70.69915 | 7165 ft | 252 kts | 353° |
| 2026-04-23 17:23 | -33.20426 | -70.70337 | 6393 ft | 253 kts | 353° |
| 2026-04-23 17:24 | -33.18668 | -70.70544 | 6014 ft | 253 kts | 354° |
| 2026-04-23 17:24 | -33.16952 | -70.70748 | 5983 ft | 257 kts | 354° |
| 2026-04-23 17:24 | -33.13241 | -70.71130 | 5975 ft | 271 kts | 355° |
| 2026-04-23 17:25 | -33.09781 | -70.72635 | 5977 ft | 272 kts | 314° |
| 2026-04-23 17:25 | -33.08823 | -70.74533 | 5761 ft | 267 kts | 285° |
| 2026-04-23 17:26 | -33.09218 | -70.78630 | 5505 ft | 245 kts | 238° |
| 2026-04-23 17:26 | -33.11632 | -70.81120 | 5268 ft | 221 kts | 203° |
| 2026-04-23 17:27 | -33.14587 | -70.81580 | 4975 ft | 215 kts | 177° |
| 2026-04-23 17:27 | -33.16086 | -70.81500 | 4980 ft | 215 kts | 178° |
| 2026-04-23 17:27 | -33.17545 | -70.81422 | 4985 ft | 200 kts | 177° |
| 2026-04-23 17:27 | -33.18864 | -70.81351 | 4963 ft | 181 kts | 178° |
| 2026-04-23 17:28 | -33.20093 | -70.81286 | 4812 ft | 173 kts | 178° |
| 2026-04-23 17:28 | -33.21265 | -70.81224 | 4604 ft | 169 kts | 178° |
| 2026-04-23 17:28 | -33.22435 | -70.81161 | 4408 ft | 167 kts | 178° |
| 2026-04-23 17:28 | -33.23592 | -70.81100 | 4191 ft | 166 kts | 178° |
| 2026-04-23 17:29 | -33.24741 | -70.81038 | 3968 ft | 165 kts | 178° |
| 2026-04-23 17:29 | -33.25882 | -70.80977 | 3767 ft | 164 kts | 178° |
| 2026-04-23 17:29 | -33.28139 | -70.80857 | 3358 ft | 158 kts | 178° |
| 2026-04-23 17:30 | -33.28856 | -70.80818 | 3203 ft | 156 kts | 178° |
| 2026-04-23 17:30 | -33.31336 | -70.80686 | 2737 ft | 151 kts | 177° |
| 2026-04-23 17:30 | -33.32392 | -70.80629 | 2519 ft | 152 kts | 178° |
| 2026-04-23 17:31 | -33.33455 | -70.80572 | 2327 ft | 154 kts | 178° |
| 2026-04-23 17:31 | -33.34525 | -70.80515 | 2111 ft | 154 kts | 179° |
| 2026-04-23 17:31 | -33.35235 | -70.80477 | 1981 ft | 154 kts | 178° |
| 2026-04-23 17:31 | -33.36658 | -70.80401 | 1712 ft | 152 kts | 178° |
| 2026-04-23 17:32 | -33.37358 | -70.80363 | 1590 ft | 151 kts | 179° |
| 2026-04-23 17:32 | -33.38552 | -70.80301 | 1573 ft | 97 kts | 177° |
| 2026-04-23 17:32 | -33.39037 | -70.80275 | 1574 ft | 39 kts | 177° |
| 2026-04-23 17:32 | -33.39227 | -70.80248 | 1572 ft | 26 kts | 163° |
| 2026-04-23 17:33 | -33.39340 | -70.80192 | 1571 ft | 26 kts | 151° |
| 2026-04-23 17:33 | -33.39437 | -70.80119 | 1568 ft | 12 kts | 147° |
| 2026-04-23 17:33 | -33.39502 | -70.80060 | 1566 ft | 12 kts | 131° |
| 2026-04-23 17:33 | -33.39530 | -70.79972 | 1565 ft | 12 kts | 91° |
| 2026-04-23 17:34 | -33.39528 | -70.79877 | 1565 ft | 11 kts | 88° |
| 2026-04-23 17:34 | -33.39525 | -70.79787 | 1565 ft | 11 kts | 88° |
| 2026-04-23 17:34 | -33.39520 | -70.79646 | 1565 ft | 6 kts | 86° |
| 2026-04-23 17:35 | -33.39517 | -70.79595 | 1565 ft | 6 kts | 86° |
| 2026-04-23 17:35 | -33.39513 | -70.79507 | 1564 ft | 6 kts | 87° |
| 2026-04-23 17:35 | -33.39511 | -70.79448 | 1564 ft | 8 kts | 87° |
| 2026-04-23 17:36 | -33.39508 | -70.79369 | 1564 ft | 10 kts | 87° |
| 2026-04-23 17:36 | -33.39516 | -70.79303 | 1564 ft | 8 kts | 141° |
| 2026-04-23 17:36 | -33.39566 | -70.79295 | 1564 ft | 6 kts | 178° |
| 2026-04-23 17:36 | -33.39587 | -70.79294 | 1564 ft | 0 kts | 178° |